createdAt,value
2019-03-27T00:02:20.315Z,70.66
2019-03-27T00:04:47.125Z,70.49
2019-03-27T00:07:13.441Z,70.29
2019-03-27T00:09:40.227Z,69.24
2019-03-27T00:12:06.703Z,69.21
2019-03-27T00:14:33.311Z,69.89
2019-03-27T00:16:59.975Z,70.92
2019-03-27T00:19:26.434Z,70.97
2019-03-27T00:21:52.920Z,71.33
2019-03-27T00:24:19.407Z,71.44
2019-03-27T00:26:45.874Z,72.06
2019-03-27T00:29:12.425Z,72.35
2019-03-27T00:31:38.739Z,72.19
2019-03-27T00:34:05.186Z,72.15
2019-03-27T00:36:31.591Z,71.43
2019-03-27T00:38:57.987Z,71.36
2019-03-27T00:41:24.523Z,71.94
2019-03-27T00:43:50.799Z,72.16
2019-03-27T00:46:17.543Z,72.48
2019-03-27T00:48:43.919Z,72.36
2019-03-27T00:51:10.266Z,71.85
2019-03-27T00:53:36.981Z,72.20
2019-03-27T00:56:03.787Z,72.22
2019-03-27T00:58:30.167Z,70.59
2019-03-27T01:01:06.659Z,71.44
2019-03-27T01:03:33.506Z,71.63
2019-03-27T01:06:00.287Z,72.15
2019-03-27T01:08:26.663Z,72.24
2019-03-27T01:10:53.394Z,72.36
2019-03-27T01:13:19.724Z,70.21
2019-03-27T01:15:46.219Z,71.13
2019-03-27T01:18:12.639Z,71.76
2019-03-27T01:20:39.740Z,72.00
2019-03-27T01:23:06.218Z,72.37
2019-03-27T01:25:32.494Z,72.10
2019-03-27T01:27:58.936Z,70.47
2019-03-27T01:30:25.218Z,69.78
2019-03-27T01:32:51.635Z,69.86
2019-03-27T01:35:17.911Z,69.64
2019-03-27T01:37:44.467Z,71.24
2019-03-27T01:40:11.042Z,72.36
2019-03-27T01:42:37.682Z,72.26
2019-03-27T01:45:06.883Z,72.42
2019-03-27T01:47:33.349Z,72.37
2019-03-27T01:49:59.823Z,72.88
2019-03-27T01:52:26.218Z,72.35
2019-03-27T01:54:52.720Z,72.37
2019-03-27T01:57:19.163Z,73.11
2019-03-27T01:59:45.826Z,72.52
2019-03-27T02:02:12.527Z,73.07
2019-03-27T02:04:39.011Z,72.87
2019-03-27T02:07:05.510Z,72.78
2019-03-27T02:09:31.931Z,73.06
2019-03-27T02:11:58.320Z,73.11
2019-03-27T02:14:24.859Z,73.45
2019-03-27T02:16:51.690Z,73.15
2019-03-27T02:19:18.479Z,72.97
2019-03-27T02:21:44.963Z,72.36
2019-03-27T02:24:11.446Z,72.82
2019-03-27T02:26:38.087Z,72.22
2019-03-27T02:29:04.873Z,71.24
2019-03-27T02:31:31.502Z,71.55
2019-03-27T02:33:58.579Z,70.92
2019-03-27T02:36:25.660Z,70.29
2019-03-27T02:38:52.144Z,70.80
2019-03-27T02:41:18.576Z,70.04
2019-03-27T02:43:46.095Z,70.44
2019-03-27T02:46:24.429Z,70.00
2019-03-27T02:48:41.846Z,69.94
2019-03-27T02:51:08.389Z,70.22
2019-03-27T02:53:35.404Z,71.12
2019-03-27T02:56:02.586Z,70.13
2019-03-27T02:58:29.431Z,70.44
2019-03-27T03:00:56.349Z,70.29
2019-03-27T03:03:22.792Z,71.05
2019-03-27T03:05:49.407Z,71.05
2019-03-27T03:08:15.884Z,71.33
2019-03-27T03:10:45.918Z,71.23
2019-03-27T03:13:12.703Z,71.54
2019-03-27T03:15:39.441Z,72.02
2019-03-27T03:18:06.276Z,72.02
2019-03-27T03:20:33.849Z,72.15
2019-03-27T03:23:00.717Z,72.39
2019-03-27T03:25:27.359Z,72.85
2019-03-27T03:27:54.145Z,73.38
2019-03-27T03:30:21.576Z,73.54
2019-03-27T03:32:48.125Z,73.70
2019-03-27T03:35:15.208Z,73.94
2019-03-27T03:37:41.788Z,74.06
2019-03-27T03:40:10.109Z,74.16
2019-03-27T03:42:37.118Z,74.31
2019-03-27T03:45:05.648Z,73.94
2019-03-27T03:47:33.004Z,73.65
2019-03-27T03:49:59.584Z,73.47
2019-03-27T03:52:26.394Z,72.88
2019-03-27T03:54:53.388Z,72.49
2019-03-27T03:57:22.053Z,72.68
2019-03-27T03:59:50.275Z,72.59
2019-03-27T04:02:18.082Z,73.00
2019-03-27T04:04:46.840Z,72.62
2019-03-27T04:07:13.332Z,72.41
2019-03-27T04:09:39.828Z,72.38
2019-03-27T04:12:06.304Z,71.87
2019-03-27T04:14:32.705Z,71.59
2019-03-27T04:17:15.768Z,71.63
2019-03-27T04:19:27.916Z,72.16
2019-03-27T04:21:54.831Z,71.45
2019-03-27T04:24:21.304Z,72.03
2019-03-27T04:26:47.820Z,71.72
2019-03-27T04:29:14.408Z,72.20
2019-03-27T04:31:40.813Z,71.77
2019-03-27T04:34:07.209Z,72.04
2019-03-27T04:36:33.847Z,72.19
2019-03-27T04:39:00.432Z,71.97
2019-03-27T04:41:27.095Z,71.85
2019-03-27T04:43:53.523Z,71.58
2019-03-27T04:46:19.917Z,72.32
2019-03-27T04:48:46.355Z,72.68
2019-03-27T04:51:12.835Z,72.74
2019-03-27T04:53:39.358Z,72.92
2019-03-27T04:56:06.053Z,73.04
2019-03-27T04:58:32.567Z,72.56
2019-03-27T05:00:59.488Z,73.17
2019-03-27T05:03:25.860Z,73.13
2019-03-27T05:05:52.376Z,72.88
2019-03-27T05:08:19.046Z,72.60
2019-03-27T05:10:45.566Z,72.50
2019-03-27T05:13:12.134Z,72.71
2019-03-27T05:15:38.928Z,72.55
2019-03-27T05:18:05.446Z,72.46
2019-03-27T05:20:31.819Z,72.74
2019-03-27T05:22:58.192Z,72.43
2019-03-27T05:25:24.621Z,72.65
2019-03-27T05:27:51.411Z,72.95
2019-03-27T05:30:26.630Z,72.86
2019-03-27T05:32:53.271Z,73.15
2019-03-27T05:35:19.722Z,73.05
2019-03-27T05:37:46.138Z,72.90
2019-03-27T05:40:12.786Z,72.63
2019-03-27T05:42:39.266Z,72.91
2019-03-27T05:45:05.813Z,72.43
2019-03-27T05:47:32.088Z,72.21
2019-03-27T05:49:58.920Z,72.08
2019-03-27T05:52:25.192Z,72.23
2019-03-27T05:54:51.490Z,71.49
2019-03-27T05:57:18.090Z,71.18
2019-03-27T05:59:44.500Z,70.90
2019-03-27T06:02:10.811Z,70.61
2019-03-27T06:04:37.436Z,69.87
2019-03-27T06:07:03.967Z,69.50
2019-03-27T06:09:30.438Z,69.02
2019-03-27T06:11:56.868Z,68.61
2019-03-27T06:14:23.936Z,66.52
2019-03-27T06:16:50.939Z,66.26
2019-03-27T06:19:17.321Z,65.73
2019-03-27T06:21:43.732Z,65.22
2019-03-27T06:24:10.827Z,64.27
2019-03-27T06:26:37.307Z,63.68
2019-03-27T06:29:03.980Z,63.19
2019-03-27T06:31:30.354Z,62.83
2019-03-27T06:33:56.787Z,61.46
2019-03-27T06:36:23.483Z,61.63
2019-03-27T06:38:50.377Z,61.22
2019-03-27T06:41:17.286Z,60.89
2019-03-27T06:43:43.663Z,58.38
2019-03-27T06:46:10.262Z,57.74
2019-03-27T06:48:37.629Z,59.05
2019-03-27T06:51:04.249Z,58.90
2019-03-27T06:53:30.942Z,57.74
2019-03-27T06:55:57.228Z,57.15
2019-03-27T06:58:23.633Z,57.99
2019-03-27T07:00:50.007Z,57.02
2019-03-27T07:03:16.779Z,54.78
2019-03-27T07:05:43.279Z,54.93
2019-03-27T07:08:09.887Z,54.85
2019-03-27T07:10:36.302Z,53.79
2019-03-27T07:13:03.067Z,53.77
2019-03-27T07:15:29.456Z,53.02
2019-03-27T07:17:56.647Z,52.38
2019-03-27T07:20:23.163Z,53.08
2019-03-27T07:22:49.628Z,53.11
2019-03-27T07:25:16.013Z,52.22
2019-03-27T07:27:42.423Z,51.56
2019-03-27T07:30:10.359Z,51.13
2019-03-27T07:32:37.064Z,49.87
2019-03-27T07:35:05.055Z,51.62
2019-03-27T07:37:31.452Z,50.16
2019-03-27T07:39:57.958Z,50.18
2019-03-27T07:42:24.527Z,50.64
2019-03-27T07:44:51.099Z,49.42
2019-03-27T07:47:17.375Z,49.29
2019-03-27T07:49:43.680Z,49.25
2019-03-27T07:52:10.460Z,49.06
2019-03-27T07:54:37.107Z,50.08
2019-03-27T07:57:03.584Z,49.07
2019-03-27T07:59:30.168Z,47.54
2019-03-27T08:01:56.932Z,47.52
2019-03-27T08:04:23.242Z,46.41
2019-03-27T08:06:49.713Z,46.31
2019-03-27T08:09:16.249Z,45.56
2019-03-27T08:11:42.845Z,45.19
2019-03-27T08:14:09.554Z,43.90
2019-03-27T08:16:35.969Z,42.46
2019-03-27T08:19:07.924Z,42.78
2019-03-27T08:21:31.383Z,43.66
2019-03-27T08:23:58.175Z,43.78
2019-03-27T08:26:24.527Z,42.10
2019-03-27T08:28:51.044Z,43.13
2019-03-27T08:31:17.861Z,42.57
2019-03-27T08:33:44.300Z,42.49
2019-03-27T08:36:10.945Z,42.71
2019-03-27T08:38:37.449Z,42.97
2019-03-27T08:41:04.276Z,42.62
2019-03-27T08:43:30.712Z,42.85
2019-03-27T08:45:57.751Z,41.81
2019-03-27T08:48:24.938Z,41.95
2019-03-27T08:50:51.584Z,41.42
2019-03-27T08:53:18.037Z,40.35
2019-03-27T08:55:44.536Z,40.65
2019-03-27T08:58:11.075Z,40.65
2019-03-27T09:00:48.154Z,41.04
2019-03-27T09:03:15.634Z,40.48
2019-03-27T09:05:42.874Z,41.20
2019-03-27T09:08:09.713Z,43.64
2019-03-27T09:10:36.344Z,41.29
2019-03-27T09:13:03.194Z,41.95
2019-03-27T09:15:29.986Z,40.17
2019-03-27T09:17:56.461Z,40.68
2019-03-27T09:20:22.996Z,38.61
2019-03-27T09:22:49.398Z,40.90
2019-03-27T09:25:16.143Z,41.64
2019-03-27T09:27:42.624Z,41.09
2019-03-27T09:30:11.446Z,40.69
2019-03-27T09:32:37.922Z,41.65
2019-03-27T09:35:05.136Z,40.68
2019-03-27T09:37:31.668Z,40.29
2019-03-27T09:39:58.328Z,40.65
2019-03-27T09:42:24.619Z,40.59
2019-03-27T09:44:50.978Z,40.44
2019-03-27T09:47:17.522Z,40.90
2019-03-27T09:49:49.374Z,40.36
2019-03-27T09:52:12.174Z,40.34
2019-03-27T09:54:38.801Z,39.73
2019-03-27T09:57:05.210Z,40.84
2019-03-27T09:59:31.641Z,40.29
2019-03-27T10:01:58.138Z,40.26
2019-03-27T10:04:24.513Z,38.43
2019-03-27T10:06:51.544Z,40.25
2019-03-27T10:09:18.035Z,40.99
2019-03-27T10:11:44.602Z,41.16
2019-03-27T10:14:10.989Z,40.59
2019-03-27T10:16:37.628Z,41.66
2019-03-27T10:19:04.314Z,40.54
2019-03-27T10:21:30.858Z,42.10
2019-03-27T10:23:57.599Z,40.78
2019-03-27T10:26:23.992Z,39.83
2019-03-27T10:28:50.364Z,39.54
2019-03-27T10:31:16.749Z,40.01
2019-03-27T10:33:43.275Z,41.75
2019-03-27T10:36:10.359Z,41.02
2019-03-27T10:38:36.755Z,40.39
2019-03-27T10:41:03.332Z,40.73
2019-03-27T10:43:30.191Z,39.63
2019-03-27T10:45:56.567Z,39.86
2019-03-27T10:48:23.205Z,40.55
2019-03-27T10:50:50.973Z,41.22
2019-03-27T10:53:17.311Z,40.36
2019-03-27T10:55:43.819Z,40.38
2019-03-27T10:58:10.188Z,40.06
2019-03-27T11:00:37.068Z,40.99
2019-03-27T11:03:03.646Z,40.37
2019-03-27T11:05:30.063Z,40.76
2019-03-27T11:07:56.654Z,41.24
2019-03-27T11:10:23.159Z,40.79
2019-03-27T11:12:49.797Z,40.00
2019-03-27T11:15:16.567Z,41.26
2019-03-27T11:17:43.054Z,41.11
2019-03-27T11:20:10.274Z,40.72
2019-03-27T11:22:36.795Z,40.71
2019-03-27T11:25:05.381Z,40.35
2019-03-27T11:27:31.819Z,40.70
2019-03-27T11:29:58.599Z,41.53
2019-03-27T11:32:24.979Z,41.63
2019-03-27T11:34:51.289Z,41.72
2019-03-27T11:37:17.563Z,41.99
2019-03-27T11:39:44.220Z,41.98
2019-03-27T11:42:10.751Z,42.13
2019-03-27T11:44:37.197Z,41.48
2019-03-27T11:47:03.618Z,41.93
2019-03-27T11:49:30.162Z,41.56
2019-03-27T11:51:56.702Z,41.94
2019-03-27T11:54:23.079Z,43.03
2019-03-27T11:56:49.734Z,43.47
2019-03-27T11:59:16.107Z,42.99
2019-03-27T12:01:43.928Z,42.39
2019-03-27T12:04:10.488Z,42.70
2019-03-27T12:06:36.971Z,42.75
2019-03-27T12:09:06.083Z,42.78
2019-03-27T12:11:32.384Z,42.52
2019-03-27T12:13:58.956Z,41.79
2019-03-27T12:16:25.654Z,42.20
2019-03-27T12:18:51.981Z,41.68
2019-03-27T12:21:18.460Z,41.37
2019-03-27T12:23:44.883Z,41.80
2019-03-27T12:26:11.265Z,42.17
2019-03-27T12:28:37.709Z,41.59
2019-03-27T12:31:04.713Z,41.93
2019-03-27T12:33:31.107Z,42.61
2019-03-27T12:35:57.703Z,41.87
2019-03-27T12:38:24.488Z,42.00
2019-03-27T12:40:50.770Z,40.51
2019-03-27T12:43:17.189Z,40.63
2019-03-27T12:45:43.558Z,41.39
2019-03-27T12:48:10.551Z,41.02
2019-03-27T12:50:44.071Z,41.00
2019-03-27T12:53:09.204Z,41.88
2019-03-27T12:55:35.719Z,41.25
2019-03-27T12:58:03.032Z,41.12
2019-03-27T13:00:29.917Z,41.14
2019-03-27T13:02:56.396Z,41.04
2019-03-27T13:05:22.871Z,40.96
2019-03-27T13:07:50.337Z,40.95
2019-03-27T13:10:17.115Z,41.66
2019-03-27T13:12:43.995Z,42.14
2019-03-27T13:15:10.724Z,41.78
2019-03-27T13:17:37.103Z,41.88
2019-03-27T13:20:08.354Z,41.76
2019-03-27T13:22:38.032Z,42.73
2019-03-27T13:25:05.384Z,42.44
2019-03-27T13:27:31.907Z,42.39
2019-03-27T13:29:58.472Z,42.20
2019-03-27T13:32:25.003Z,43.11
2019-03-27T13:34:51.786Z,42.31
2019-03-27T13:37:18.223Z,42.59
2019-03-27T13:39:44.694Z,42.31
2019-03-27T13:42:11.285Z,42.75
2019-03-27T13:44:37.780Z,43.32
2019-03-27T13:47:04.455Z,43.27
2019-03-27T13:49:30.996Z,43.82
2019-03-27T13:51:57.426Z,43.43
2019-03-27T13:54:23.743Z,43.37
2019-03-27T13:56:50.543Z,42.75
2019-03-27T13:59:16.960Z,42.81
2019-03-27T14:01:43.415Z,42.77
2019-03-27T14:04:09.812Z,42.81
2019-03-27T14:06:36.231Z,42.81
2019-03-27T14:09:06.188Z,42.78
2019-03-27T14:11:32.611Z,42.77
2019-03-27T14:14:10.515Z,43.60
2019-03-27T14:16:27.588Z,43.60
2019-03-27T14:18:54.337Z,43.93
2019-03-27T14:21:23.334Z,43.62
2019-03-27T14:23:49.036Z,44.11
2019-03-27T14:26:15.514Z,43.72
2019-03-27T14:28:41.933Z,43.87
2019-03-27T14:31:09.200Z,44.03
2019-03-27T14:33:35.616Z,43.36
2019-03-27T14:36:02.377Z,43.36
2019-03-27T14:38:28.857Z,43.33
2019-03-27T14:40:55.428Z,43.01
2019-03-27T14:43:21.940Z,43.02
2019-03-27T14:45:48.867Z,43.35
2019-03-27T14:48:15.487Z,43.55
2019-03-27T14:50:41.880Z,43.42
2019-03-27T14:53:08.692Z,44.41
2019-03-27T14:55:35.012Z,43.89
2019-03-27T14:58:01.455Z,44.60
2019-03-27T15:00:28.135Z,44.23
2019-03-27T15:02:54.514Z,43.17
2019-03-27T15:05:21.208Z,43.75
2019-03-27T15:07:48.195Z,43.74
2019-03-27T15:10:14.926Z,43.75
2019-03-27T15:12:43.023Z,44.02
2019-03-27T15:15:10.554Z,43.73
2019-03-27T15:17:37.955Z,43.84
2019-03-27T15:20:06.981Z,43.77
2019-03-27T15:22:33.989Z,43.62
2019-03-27T15:25:00.492Z,43.96
2019-03-27T15:27:27.109Z,43.80
2019-03-27T15:29:53.631Z,43.84
2019-03-27T15:32:20.378Z,44.06
2019-03-27T15:34:46.665Z,44.19
2019-03-27T15:37:13.083Z,43.88
2019-03-27T15:39:39.886Z,44.62
2019-03-27T15:42:09.178Z,44.77
2019-03-27T15:44:34.723Z,44.17
2019-03-27T15:47:01.142Z,44.63
2019-03-27T15:49:27.532Z,44.54
2019-03-27T15:51:54.051Z,44.88
2019-03-27T15:54:20.502Z,45.03
2019-03-27T15:56:46.886Z,44.70
2019-03-27T15:59:13.605Z,44.69
2019-03-27T16:01:39.998Z,45.12
2019-03-27T16:04:06.767Z,44.84
2019-03-27T16:06:33.273Z,44.99
2019-03-27T16:08:59.703Z,45.92
2019-03-27T16:11:26.118Z,45.57
2019-03-27T16:13:52.513Z,45.31
2019-03-27T16:16:19.008Z,45.21
2019-03-27T16:18:45.775Z,45.28
2019-03-27T16:21:12.285Z,45.40
2019-03-27T16:23:38.678Z,46.08
2019-03-27T16:26:05.297Z,45.59
2019-03-27T16:28:31.668Z,45.59
2019-03-27T16:30:58.482Z,45.88
2019-03-27T16:33:24.863Z,46.03
2019-03-27T16:35:51.269Z,45.93
2019-03-27T16:38:17.688Z,46.95
2019-03-27T16:40:45.820Z,47.23
2019-03-27T16:43:12.426Z,46.48
2019-03-27T16:45:38.846Z,47.02
2019-03-27T16:48:05.539Z,46.71
2019-03-27T16:50:32.896Z,46.83
2019-03-27T16:53:03.709Z,47.76
2019-03-27T16:55:28.312Z,47.91
2019-03-27T16:57:54.801Z,47.83
2019-03-27T17:00:21.527Z,47.97
2019-03-27T17:02:48.063Z,47.75
2019-03-27T17:05:15.931Z,48.04
2019-03-27T17:07:42.700Z,47.84
2019-03-27T17:10:10.101Z,47.98
2019-03-27T17:12:36.722Z,48.07
2019-03-27T17:15:05.148Z,48.05
2019-03-27T17:17:31.580Z,48.30
2019-03-27T17:19:58.070Z,48.16
2019-03-27T17:22:24.449Z,48.05
2019-03-27T17:24:50.981Z,48.50
2019-03-27T17:27:17.389Z,48.40
2019-03-27T17:29:44.012Z,48.61
2019-03-27T17:32:10.614Z,48.28
2019-03-27T17:34:37.055Z,48.62
2019-03-27T17:37:03.490Z,48.45
2019-03-27T17:39:29.910Z,48.75
2019-03-27T17:41:56.324Z,48.86
2019-03-27T17:44:22.768Z,48.70
2019-03-27T17:46:50.273Z,48.96
2019-03-27T17:49:16.941Z,49.21
2019-03-27T17:51:43.519Z,49.27
2019-03-27T17:54:19.945Z,49.21
2019-03-27T17:56:38.539Z,49.34
2019-03-27T17:59:05.025Z,49.47
2019-03-27T18:01:31.387Z,49.43
2019-03-27T18:03:57.965Z,49.36
2019-03-27T18:06:24.570Z,49.44
2019-03-27T18:08:51.089Z,49.71
2019-03-27T18:11:17.615Z,50.11
2019-03-27T18:13:43.891Z,50.44
2019-03-27T18:16:10.606Z,50.93
2019-03-27T18:18:37.038Z,51.45
2019-03-27T18:21:03.908Z,52.25
2019-03-27T18:23:30.548Z,52.72
2019-03-27T18:25:57.024Z,52.87
2019-03-27T18:28:25.145Z,52.93
2019-03-27T18:30:51.530Z,52.94
2019-03-27T18:33:18.090Z,53.28
2019-03-27T18:35:44.661Z,53.47
2019-03-27T18:38:11.067Z,52.95
2019-03-27T18:40:38.043Z,53.20
2019-03-27T18:43:04.637Z,53.17
2019-03-27T18:45:31.321Z,53.21
2019-03-27T18:47:57.867Z,53.38
2019-03-27T18:50:24.469Z,53.43
2019-03-27T18:52:50.874Z,53.64
2019-03-27T18:55:26.272Z,53.73
2019-03-27T18:57:59.037Z,53.82
2019-03-27T19:00:14.701Z,54.24
2019-03-27T19:02:41.411Z,54.63
2019-03-27T19:05:08.794Z,54.64
2019-03-27T19:07:35.546Z,54.95
2019-03-27T19:10:06.324Z,55.01
2019-03-27T19:12:32.734Z,55.29
2019-03-27T19:14:59.220Z,55.78
2019-03-27T19:17:26.545Z,55.62
2019-03-27T19:19:53.152Z,55.90
2019-03-27T19:22:19.741Z,55.98
2019-03-27T19:24:46.132Z,56.08
2019-03-27T19:27:12.585Z,56.23
2019-03-27T19:29:39.198Z,56.56
2019-03-27T19:32:05.694Z,56.36
2019-03-27T19:34:32.574Z,56.63
2019-03-27T19:36:58.975Z,56.88
2019-03-27T19:39:25.599Z,56.75
2019-03-27T19:41:52.322Z,56.74
2019-03-27T19:44:18.977Z,56.46
2019-03-27T19:46:45.317Z,56.27
2019-03-27T19:49:11.695Z,55.87
2019-03-27T19:51:38.634Z,56.22
2019-03-27T19:54:05.027Z,56.10
2019-03-27T19:56:31.462Z,56.21
2019-03-27T19:58:57.866Z,55.75
2019-03-27T20:01:24.503Z,56.14
2019-03-27T20:03:51.135Z,55.92
2019-03-27T20:06:17.616Z,55.98
2019-03-27T20:08:44.000Z,56.37
2019-03-27T20:11:10.487Z,56.40
2019-03-27T20:13:37.178Z,56.22
2019-03-27T20:16:03.699Z,56.00
2019-03-27T20:18:30.279Z,56.33
2019-03-27T20:20:56.935Z,56.03
2019-03-27T20:23:23.350Z,56.13
2019-03-27T20:25:49.648Z,56.11
2019-03-27T20:28:16.041Z,56.03
2019-03-27T20:30:42.911Z,56.04
2019-03-27T20:33:09.441Z,55.90
2019-03-27T20:35:35.880Z,55.74
2019-03-27T20:38:02.597Z,55.75
2019-03-27T20:40:29.179Z,55.66
2019-03-27T20:42:55.921Z,55.61
2019-03-27T20:45:22.567Z,55.66
2019-03-27T20:47:49.340Z,55.65
2019-03-27T20:50:16.127Z,56.16
2019-03-27T20:52:42.579Z,56.18
2019-03-27T20:55:09.771Z,56.17
2019-03-27T20:57:36.483Z,56.11
2019-03-27T21:00:07.421Z,56.45
2019-03-27T21:02:34.063Z,56.86
2019-03-27T21:05:00.715Z,56.95
2019-03-27T21:07:27.139Z,56.43
2019-03-27T21:09:53.576Z,56.36
2019-03-27T21:12:20.109Z,56.42
2019-03-27T21:14:46.591Z,56.68
2019-03-27T21:17:13.156Z,56.54
2019-03-27T21:19:39.564Z,56.67
2019-03-27T21:22:06.066Z,56.76
2019-03-27T21:24:32.452Z,57.19
2019-03-27T21:26:58.868Z,56.83
2019-03-27T21:29:25.390Z,57.01
2019-03-27T21:31:51.692Z,57.37
2019-03-27T21:34:18.601Z,57.22
2019-03-27T21:36:44.987Z,57.28
2019-03-27T21:39:11.706Z,57.37
2019-03-27T21:41:38.236Z,57.27
2019-03-27T21:44:04.732Z,57.30
2019-03-27T21:46:31.130Z,57.89
2019-03-27T21:48:57.507Z,57.59
2019-03-27T21:51:24.164Z,57.93
2019-03-27T21:53:50.923Z,58.31
2019-03-27T21:56:17.811Z,58.15
2019-03-27T21:58:44.495Z,58.34
2019-03-27T22:01:10.869Z,58.21
2019-03-27T22:03:37.355Z,58.27
2019-03-27T22:06:03.990Z,58.35
2019-03-27T22:08:30.426Z,58.24
2019-03-27T22:10:56.826Z,58.08
2019-03-27T22:13:23.255Z,58.05
2019-03-27T22:15:49.935Z,58.12
2019-03-27T22:18:16.375Z,57.83
2019-03-27T22:20:42.887Z,57.87
2019-03-27T22:23:09.320Z,58.07
2019-03-27T22:25:36.633Z,58.19
2019-03-27T22:28:03.270Z,58.30
2019-03-27T22:30:29.646Z,58.34
2019-03-27T22:32:56.245Z,58.53
2019-03-27T22:35:22.662Z,59.27
2019-03-27T22:37:49.186Z,59.30
2019-03-27T22:40:15.666Z,59.40
2019-03-27T22:42:41.938Z,59.56
2019-03-27T22:45:08.924Z,59.83
2019-03-27T22:47:35.334Z,60.06
2019-03-27T22:50:07.754Z,59.41
2019-03-27T22:52:32.842Z,59.81
2019-03-27T22:54:59.221Z,59.90
2019-03-27T22:57:25.654Z,60.01
2019-03-27T22:59:52.322Z,60.00
2019-03-27T23:02:18.908Z,60.02
2019-03-27T23:04:45.279Z,59.93
2019-03-27T23:07:11.726Z,60.16
2019-03-27T23:09:38.423Z,59.95
2019-03-27T23:12:05.022Z,59.60
2019-03-27T23:14:31.551Z,59.87
2019-03-27T23:16:58.026Z,59.52
2019-03-27T23:19:24.565Z,59.33
2019-03-27T23:21:51.049Z,58.65
2019-03-27T23:24:17.557Z,58.85
2019-03-27T23:26:43.933Z,58.68
2019-03-27T23:29:10.610Z,59.09
2019-03-27T23:31:37.110Z,58.83
2019-03-27T23:34:03.688Z,58.50
2019-03-27T23:36:30.823Z,58.31
2019-03-27T23:38:57.235Z,58.26
2019-03-27T23:41:23.750Z,58.27
2019-03-27T23:43:50.070Z,58.73
2019-03-27T23:46:16.655Z,58.34
2019-03-27T23:48:43.267Z,58.35
2019-03-27T23:51:09.700Z,58.86
2019-03-27T23:53:36.115Z,59.20
2019-03-27T23:56:15.526Z,58.93
2019-03-27T23:58:31.026Z,59.79
